Time;durP1;ratioP1;P1;durP2;ratioP2;P2;SDS_P1;SDS_P2;PMS_P1;PMS_P2;Temp;Humidity;BMP_temperature;BMP_pressure;BME280_temperature;BME280_humidity;BME280_pressure;Samples;Min_cycle;Max_cycle;Signal;HPM_P1;HPM_P2
2023/01/20 00:01:03;;;;;;;62.85;30.40;;;-2.60;99.90;;;;;;5016284;28;20034;-69
2023/01/20 00:03:29;;;;;;;69.90;33.13;;;-2.60;99.90;;;;;;5020898;28;20030;-69
2023/01/20 00:05:55;;;;;;;72.63;34.30;;;-2.60;99.90;;;;;;5028769;28;20065;-68
2023/01/20 00:08:20;;;;;;;75.55;34.00;;;-2.60;99.90;;;;;;5007085;28;20029;-69
2023/01/20 00:10:46;;;;;;;70.15;33.70;;;-2.60;99.90;;;;;;5023408;28;20067;-70
2023/01/20 00:13:11;;;;;;;75.25;34.88;;;-2.70;99.90;;;;;;5025654;28;20057;-70
2023/01/20 00:15:37;;;;;;;65.20;32.85;;;-2.70;99.90;;;;;;5026240;28;20035;-68
2023/01/20 00:18:03;;;;;;;78.45;34.65;;;-2.70;99.90;;;;;;5009539;28;20072;-68
2023/01/20 00:20:28;;;;;;;67.30;33.42;;;-2.80;99.90;;;;;;5027561;28;20107;-68
2023/01/20 00:22:54;;;;;;;70.13;33.88;;;-2.80;99.90;;;;;;5020990;28;20067;-68
2023/01/20 00:25:20;;;;;;;68.90;34.92;;;-2.80;99.90;;;;;;5026283;28;20041;-70
2023/01/20 00:27:45;;;;;;;59.55;29.27;;;-2.80;99.90;;;;;;5022791;28;20024;-70
2023/01/20 00:30:12;;;;;;;71.18;31.45;;;-2.70;99.90;;;;;;5023579;28;20028;-69
2023/01/20 00:32:43;;;;;;;67.55;31.83;;;-2.70;99.90;;;;;;5026520;28;20516;-70
2023/01/20 00:35:09;;;;;;;67.47;31.15;;;-2.70;99.90;;;;;;5020235;28;20025;-70
2023/01/20 00:37:35;;;;;;;72.35;33.42;;;-2.70;99.90;;;;;;5026011;28;20025;-68
2023/01/20 00:40:00;;;;;;;58.20;29.52;;;-2.70;99.90;;;;;;5020796;28;20119;-71
2023/01/20 00:42:26;;;;;;;73.20;30.75;;;-2.70;99.90;;;;;;5027232;28;20018;-72
2023/01/20 00:44:52;;;;;;;65.17;29.70;;;-2.60;99.90;;;;;;5020927;28;20068;-72
2023/01/20 00:47:19;;;;;;;68.28;32.38;;;-2.60;99.90;;;;;;5027012;28;20292;-70
2023/01/20 00:49:48;;;;;;;61.58;30.13;;;-2.50;99.90;;;;;;5017856;28;20493;-70
2023/01/20 00:52:14;;;;;;;60.90;28.13;;;-2.40;99.90;;;;;;5024214;28;20088;-68
2023/01/20 00:54:39;;;;;;;59.72;28.27;;;-2.40;99.90;;;;;;5023871;28;20025;-68
2023/01/20 00:57:05;;;;;;;57.75;27.98;;;-2.40;99.90;;;;;;5023771;28;20036;-68
2023/01/20 00:59:31;;;;;;;64.97;30.63;;;-2.40;99.90;;;;;;5015974;28;20095;-68
2023/01/20 01:01:57;;;;;;;54.08;27.70;;;-2.40;99.90;;;;;;5021611;28;20040;-68
2023/01/20 01:04:22;;;;;;;57.88;28.42;;;-2.40;99.90;;;;;;5023128;28;20037;-69
2023/01/20 01:06:51;;;;;;;53.15;27.85;;;-2.30;99.90;;;;;;5015990;28;20037;-70
2023/01/20 01:09:16;;;;;;;62.90;29.60;;;-2.30;99.90;;;;;;5019779;28;20037;-71
2023/01/20 01:11:42;;;;;;;57.25;28.65;;;-2.30;99.90;;;;;;5017755;28;20400;-71
2023/01/20 01:14:08;;;;;;;58.90;29.33;;;-2.30;99.90;;;;;;5005244;28;20045;-70
2023/01/20 01:16:33;;;;;;;59.28;29.40;;;-2.30;99.90;;;;;;5004169;28;20060;-70
2023/01/20 01:18:59;;;;;;;64.28;27.20;;;-2.20;99.90;;;;;;5016945;28;20044;-70
2023/01/20 01:21:25;;;;;;;52.13;27.20;;;-2.30;99.90;;;;;;5025306;28;20024;-70
2023/01/20 01:23:52;;;;;;;54.63;27.30;;;-2.30;99.90;;;;;;5009489;28;20099;-70
2023/01/20 01:26:17;;;;;;;60.45;26.67;;;-2.20;99.90;;;;;;5022423;28;20079;-72
2023/01/20 01:28:46;;;;;;;61.08;28.38;;;-2.20;99.90;;;;;;5018724;28;20437;-69
2023/01/20 01:31:11;;;;;;;56.67;29.05;;;-2.20;99.90;;;;;;5020323;28;20041;-70
2023/01/20 01:33:37;;;;;;;59.95;29.38;;;-2.20;99.90;;;;;;5023780;28;20030;-71
2023/01/20 01:36:04;;;;;;;52.55;27.35;;;-2.20;99.90;;;;;;5022068;28;20037;-72
2023/01/20 01:38:30;;;;;;;59.20;29.13;;;-2.10;99.90;;;;;;5023625;28;20018;-72
2023/01/20 01:40:56;;;;;;;59.83;29.30;;;-2.10;99.90;;;;;;5023707;28;20053;-72
2023/01/20 01:43:31;;;;;;;61.85;29.80;;;-2.20;99.90;;;;;;5027031;28;20053;-71
2023/01/20 01:45:56;;;;;;;51.90;27.40;;;-2.10;99.90;;;;;;5022743;28;20069;-72
2023/01/20 01:48:34;;;;;;;55.15;27.05;;;-2.20;99.90;;;;;;5018808;28;20076;-71
2023/01/20 01:51:07;;;;;;;56.75;26.80;;;-2.20;99.90;;;;;;5007378;28;20068;-72
2023/01/20 01:53:46;;;;;;;51.08;26.08;;;-2.20;99.90;;;;;;5018054;28;20088;-71
2023/01/20 01:56:12;;;;;;;53.13;25.63;;;-2.20;99.90;;;;;;5023862;28;20037;-72
2023/01/20 01:58:39;;;;;;;;;;;-2.20;99.90;;;;;;5017282;28;20036;-69
2023/01/20 02:01:05;;;;;;;51.35;25.73;;;-2.10;99.90;;;;;;5018231;28;19988;-72
2023/01/20 02:04:03;;;;;;;56.15;26.33;;;-2.00;99.90;;;;;;5025202;28;20461;-71
2023/01/20 02:06:33;;;;;;;52.80;26.63;;;-2.10;99.90;;;;;;5010797;28;20025;-70
2023/01/20 02:09:01;;;;;;;45.65;23.20;;;-2.10;99.90;;;;;;5014767;28;20057;-71
2023/01/20 02:11:28;;;;;;;46.38;25.10;;;-2.00;99.90;;;;;;5025805;28;20034;-70
2023/01/20 02:13:54;;;;;;;58.17;25.65;;;-2.10;99.90;;;;;;5027336;28;20396;-70
2023/01/20 02:16:43;;;;;;;49.35;26.88;;;-2.00;99.90;;;;;;5028849;28;20112;-70
2023/01/20 02:19:32;;;;;;;55.42;27.13;;;-2.00;99.90;;;;;;4987336;28;20077;-71
2023/01/20 02:22:11;;;;;;;54.97;28.05;;;-1.90;99.90;;;;;;5028699;28;20026;-72
2023/01/20 02:25:20;;;;;;;56.15;28.52;;;-1.90;99.90;;;;;;5024160;28;20041;-69
2023/01/20 02:28:04;;;;;;;52.15;27.58;;;-1.80;99.90;;;;;;4996972;28;20168;-69
2023/01/20 02:30:38;;;;;;;57.05;27.08;;;-1.70;99.90;;;;;;5019957;28;20030;-68
2023/01/20 02:33:22;;;;;;;51.20;26.35;;;-1.70;99.90;;;;;;5008270;28;20026;-72
2023/01/20 02:35:58;;;;;;;53.63;25.63;;;-1.80;99.90;;;;;;5025865;28;20095;-70
2023/01/20 02:38:42;;;;;;;56.58;26.33;;;-1.90;99.90;;;;;;5024849;28;20544;-68
2023/01/20 02:41:35;;;;;;;62.55;27.55;;;-1.90;99.90;;;;;;5027487;28;20045;-68
2023/01/20 02:44:27;;;;;;;55.38;25.92;;;-1.90;99.90;;;;;;5023070;28;20037;-71
2023/01/20 02:47:03;;;;;;;50.42;26.25;;;-2.00;99.90;;;;;;5024727;28;20018;-69
2023/01/20 02:49:51;;;;;;;56.85;27.42;;;-2.00;99.90;;;;;;5024686;28;20026;-72
2023/01/20 02:52:25;;;;;;;58.70;28.98;;;-2.00;99.90;;;;;;5004802;28;20112;-70
2023/01/20 02:54:54;;;;;;;55.95;28.27;;;-2.10;99.90;;;;;;5015381;28;20026;-71
2023/01/20 02:57:33;;;;;;;54.50;27.70;;;-2.10;99.90;;;;;;5029136;28;20167;-72
2023/01/20 03:00:05;;;;;;;55.17;27.67;;;-2.10;99.90;;;;;;5023427;28;20049;-71
2023/01/20 03:02:33;;;;;;;60.97;29.25;;;-2.20;99.90;;;;;;5022019;28;20030;-68
2023/01/20 03:05:07;;;;;;;56.30;28.95;;;-2.30;99.90;;;;;;5026953;28;20017;-68
2023/01/20 03:07:36;;;;;;;60.85;29.13;;;-2.30;99.90;;;;;;5024280;28;20508;-68
2023/01/20 03:10:06;;;;;;;54.05;27.42;;;-2.30;99.90;;;;;;5010523;28;20072;-68
2023/01/20 03:12:53;;;;;;;53.45;24.60;;;-2.30;99.90;;;;;;4984480;28;20057;-68
2023/01/20 03:15:24;;;;;;;52.72;25.58;;;-2.20;99.90;;;;;;5025845;28;20117;-71
2023/01/20 03:17:51;;;;;;;52.33;25.77;;;-2.20;99.90;;;;;;5020907;28;20029;-70
2023/01/20 03:20:17;;;;;;;57.40;26.40;;;-2.30;99.90;;;;;;5021332;28;20034;-71
2023/01/20 03:22:43;;;;;;;49.50;24.50;;;-2.20;99.90;;;;;;5025048;28;20021;-70
2023/01/20 03:25:11;;;;;;;49.35;26.60;;;-2.20;99.90;;;;;;5022685;28;20042;-71
2023/01/20 03:27:37;;;;;;;54.13;26.23;;;-2.20;99.90;;;;;;5024565;28;20127;-69
2023/01/20 03:30:11;;;;;;;71.07;27.85;;;-2.20;99.90;;;;;;5024903;28;20108;-70
2023/01/20 03:32:37;;;;;;;55.63;26.77;;;-2.30;99.90;;;;;;5017428;28;20026;-69
2023/01/20 03:35:03;;;;;;;56.30;27.55;;;-2.30;99.90;;;;;;5025934;28;20055;-70
2023/01/20 03:37:28;;;;;;;51.65;26.27;;;-2.30;99.90;;;;;;5025098;28;20136;-70
2023/01/20 03:39:55;;;;;;;63.95;29.35;;;-2.30;99.90;;;;;;5020895;28;20041;-71
2023/01/20 03:42:57;;;;;;;55.03;26.48;;;-2.40;99.90;;;;;;5021937;28;20444;-70
2023/01/20 03:45:50;;;;;;;61.40;26.58;;;-2.40;99.90;;;;;;5027312;28;20037;-71
2023/01/20 03:48:30;;;;;;;56.22;27.33;;;-2.40;99.90;;;;;;5025050;28;20040;-71
2023/01/20 03:51:23;;;;;;;57.30;28.17;;;-2.40;99.90;;;;;;5019953;28;20026;-71
2023/01/20 03:53:58;;;;;;;53.92;27.27;;;-2.40;99.90;;;;;;5023696;28;20087;-70
2023/01/20 03:56:28;;;;;;;53.88;26.52;;;-2.40;99.90;;;;;;5023608;28;20501;-71
2023/01/20 03:58:56;;;;;;;55.97;27.27;;;-2.50;99.90;;;;;;5022267;28;20026;-72
2023/01/20 04:01:30;;;;;;;50.22;25.95;;;-2.50;99.90;;;;;;5022011;28;20094;-71
2023/01/20 04:03:56;;;;;;;50.58;25.55;;;-2.40;99.90;;;;;;5020905;28;20022;-72
2023/01/20 04:06:26;;;;;;;62.95;27.90;;;-2.50;99.90;;;;;;5023109;28;20037;-72
2023/01/20 04:08:58;;;;;;;56.28;27.27;;;-2.40;99.90;;;;;;5025516;28;20500;-69
2023/01/20 04:11:25;;;;;;;51.03;26.15;;;-2.40;99.90;;;;;;5021038;28;20029;-71
2023/01/20 04:13:51;;;;;;;53.47;27.23;;;-2.50;99.90;;;;;;5022029;28;20025;-70
2023/01/20 04:16:18;;;;;;;54.60;26.52;;;-2.40;99.90;;;;;;5020965;28;20026;-72
2023/01/20 04:18:49;;;;;;;56.28;25.67;;;-2.40;99.90;;;;;;5015434;28;20048;-71
2023/01/20 04:21:40;;;;;;;52.63;25.40;;;-2.40;99.90;;;;;;5023769;28;20026;-71
2023/01/20 04:24:09;;;;;;;48.80;26.08;;;-2.40;99.90;;;;;;5020616;28;20040;-69
2023/01/20 04:26:35;;;;;;;57.42;24.42;;;-2.40;99.90;;;;;;5025992;28;20026;-70
2023/01/20 04:29:07;;;;;;;49.70;25.85;;;-2.50;99.90;;;;;;5022740;28;20059;-68
2023/01/20 04:31:34;;;;;;;55.00;26.63;;;-2.50;99.90;;;;;;5020730;28;20444;-69
2023/01/20 04:34:00;;;;;;;56.22;25.42;;;-2.60;99.90;;;;;;5016533;28;20052;-70
2023/01/20 04:36:26;;;;;;;46.05;24.13;;;-2.70;99.90;;;;;;5005270;28;20141;-69
2023/01/20 04:38:52;;;;;;;47.83;23.15;;;-2.70;99.90;;;;;;5006244;28;20112;-69
2023/01/20 04:41:17;;;;;;;45.20;24.00;;;-2.70;99.90;;;;;;5024798;28;20049;-71
2023/01/20 04:43:44;;;;;;;47.58;24.33;;;-2.80;99.90;;;;;;5021610;28;20029;-68
2023/01/20 04:46:11;;;;;;;48.92;23.48;;;-2.80;99.90;;;;;;5020985;28;20029;-70
2023/01/20 04:48:37;;;;;;;53.33;26.05;;;-2.80;99.90;;;;;;5022208;28;20458;-68
2023/01/20 04:51:04;;;;;;;50.88;24.80;;;-2.90;99.90;;;;;;5022588;28;20018;-69
2023/01/20 04:53:30;;;;;;;47.97;23.55;;;-3.00;99.90;;;;;;5005584;28;20087;-69
2023/01/20 04:55:55;;;;;;;51.95;25.58;;;-3.00;99.90;;;;;;5026390;28;20499;-69
2023/01/20 04:58:21;;;;;;;48.85;23.45;;;-3.10;99.90;;;;;;5022283;28;20087;-67
2023/01/20 05:00:47;;;;;;;46.85;22.60;;;-3.10;99.90;;;;;;5018508;28;20040;-68
2023/01/20 05:03:12;;;;;;;41.95;20.88;;;-3.10;99.90;;;;;;5026348;28;20457;-68
2023/01/20 05:05:38;;;;;;;43.85;21.58;;;-3.10;99.90;;;;;;5017038;28;20029;-68
2023/01/20 05:08:04;;;;;;;35.35;19.08;;;-3.20;99.90;;;;;;5018666;28;20033;-70
2023/01/20 05:10:33;;;;;;;41.75;22.08;;;-3.20;99.90;;;;;;5019937;28;20585;-71
2023/01/20 05:12:59;;;;;;;43.65;20.05;;;-3.20;99.90;;;;;;5026428;28;20069;-71
2023/01/20 05:15:25;;;;;;;39.78;19.50;;;-3.20;99.90;;;;;;5021667;28;20511;-70
2023/01/20 05:17:50;;;;;;;54.35;21.27;;;-3.20;99.90;;;;;;5022773;28;20176;-70
2023/01/20 05:20:17;;;;;;;39.33;21.08;;;-3.30;99.90;;;;;;5020237;28;20056;-68
2023/01/20 05:22:43;;;;;;;45.50;23.50;;;-3.40;99.90;;;;;;5021854;28;20021;-67
2023/01/20 05:25:09;;;;;;;41.45;21.42;;;-3.30;99.90;;;;;;5025082;28;20033;-68
2023/01/20 05:27:35;;;;;;;46.28;21.60;;;-3.40;99.90;;;;;;5017833;28;20028;-67
2023/01/20 05:30:02;;;;;;;38.80;19.60;;;-3.40;99.90;;;;;;5020462;28;20028;-69
2023/01/20 05:32:28;;;;;;;40.25;19.42;;;-3.40;99.90;;;;;;5025827;28;20497;-70
2023/01/20 05:34:53;;;;;;;37.20;19.33;;;-3.40;99.90;;;;;;5014870;28;20109;-70
2023/01/20 05:37:19;;;;;;;36.20;18.98;;;-3.40;99.90;;;;;;5016888;28;20413;-70
2023/01/20 05:39:44;;;;;;;37.25;18.85;;;-3.40;99.90;;;;;;5026027;28;20045;-71
2023/01/20 05:42:10;;;;;;;32.63;17.38;;;-3.40;99.90;;;;;;5018891;28;20030;-70
2023/01/20 05:44:35;;;;;;;42.08;19.15;;;-3.40;99.90;;;;;;5023844;28;20028;-70
2023/01/20 05:47:01;;;;;;;38.72;18.63;;;-3.40;99.90;;;;;;5016488;28;20038;-68
2023/01/20 05:49:27;;;;;;;40.65;20.67;;;-3.40;99.90;;;;;;5029604;28;20032;-69
2023/01/20 05:51:53;;;;;;;38.40;19.38;;;-3.50;99.90;;;;;;5026419;28;20025;-70
2023/01/20 05:54:18;;;;;;;41.33;18.92;;;-3.60;99.90;;;;;;5024598;28;20029;-71
2023/01/20 05:56:46;;;;;;;41.90;20.58;;;-3.50;99.90;;;;;;5021682;28;20044;-70
2023/01/20 05:59:11;;;;;;;43.72;20.77;;;-3.50;99.90;;;;;;5021733;28;20039;-70
2023/01/20 06:01:37;;;;;;;43.22;19.58;;;-3.40;99.90;;;;;;5026150;28;20022;-68
2023/01/20 06:04:03;;;;;;;45.38;20.67;;;-3.50;99.90;;;;;;5008195;28;20064;-71
2023/01/20 06:06:28;;;;;;;46.28;19.70;;;-3.40;99.90;;;;;;5010555;28;20418;-70
2023/01/20 06:08:54;;;;;;;53.35;27.38;;;-3.40;99.90;;;;;;5023130;28;20048;-70
2023/01/20 06:11:20;;;;;;;55.78;26.10;;;-3.20;99.90;;;;;;5022686;28;20026;-71
2023/01/20 06:13:47;;;;;;;64.38;28.13;;;-3.10;99.90;;;;;;5020297;28;20034;-71
2023/01/20 06:16:13;;;;;;;53.58;25.67;;;-3.00;99.90;;;;;;5027291;28;20558;-71
2023/01/20 06:18:38;;;;;;;59.70;27.25;;;-2.90;99.90;;;;;;5023916;28;20037;-71
2023/01/20 06:21:04;;;;;;;54.50;26.42;;;-2.80;99.90;;;;;;5020687;28;20557;-70
2023/01/20 06:23:30;;;;;;;51.42;27.55;;;-2.80;99.90;;;;;;5025440;28;20087;-72
2023/01/20 06:25:59;;;;;;;49.90;24.55;;;-2.80;99.90;;;;;;5027142;28;20033;-69
2023/01/20 06:28:24;;;;;;;51.22;25.17;;;-2.70;99.90;;;;;;5019428;28;20072;-71
2023/01/20 06:30:50;;;;;;;46.33;24.65;;;-2.60;99.90;;;;;;5017263;28;20033;-70
2023/01/20 06:33:15;;;;;;;49.03;23.88;;;-2.50;99.90;;;;;;5019386;28;20029;-71
2023/01/20 06:35:41;;;;;;;53.50;24.48;;;-2.50;99.90;;;;;;5027825;28;20741;-70
2023/01/20 06:38:06;;;;;;;51.55;24.45;;;-2.60;99.90;;;;;;5020591;28;20060;-70
2023/01/20 06:40:32;;;;;;;53.70;25.85;;;-2.50;99.90;;;;;;5027626;28;20033;-68
2023/01/20 06:42:58;;;;;;;47.65;23.77;;;-2.50;99.90;;;;;;5019438;28;20206;-70
2023/01/20 06:45:23;;;;;;;46.80;24.05;;;-2.40;99.90;;;;;;5027013;28;20021;-70
2023/01/20 06:47:49;;;;;;;68.50;26.50;;;-2.40;99.90;;;;;;5026122;28;20038;-70
2023/01/20 06:50:15;;;;;;;51.40;25.23;;;-2.40;99.90;;;;;;5007362;28;20021;-71
2023/01/20 06:52:41;;;;;;;55.70;25.90;;;-2.40;99.90;;;;;;5015411;28;20038;-68
2023/01/20 06:55:07;;;;;;;47.03;24.65;;;-2.30;99.90;;;;;;5027193;28;20040;-69
2023/01/20 06:57:32;;;;;;;53.92;23.80;;;-2.30;99.90;;;;;;5022711;28;20409;-68
2023/01/20 06:59:58;;;;;;;53.97;25.27;;;-2.30;99.90;;;;;;5025342;28;20124;-71
2023/01/20 07:02:24;;;;;;;48.70;24.42;;;-2.30;99.90;;;;;;5022945;28;20029;-72
2023/01/20 07:04:52;;;;;;;51.88;23.27;;;-2.30;99.90;;;;;;5026156;28;20612;-68
2023/01/20 07:07:18;;;;;;;49.00;22.25;;;-2.20;99.90;;;;;;5011769;28;20397;-72
2023/01/20 07:09:43;;;;;;;49.55;23.23;;;-2.20;99.90;;;;;;5025015;28;20028;-70
2023/01/20 07:12:09;;;;;;;46.65;23.27;;;-2.10;99.90;;;;;;5018725;28;20061;-69
2023/01/20 07:14:35;;;;;;;44.83;23.00;;;-2.10;99.90;;;;;;5017850;28;20033;-68
2023/01/20 07:17:00;;;;;;;47.97;23.67;;;-2.10;99.90;;;;;;5024767;28;20029;-68
2023/01/20 07:19:26;;;;;;;44.33;22.40;;;-2.00;99.90;;;;;;5017226;28;20516;-72
2023/01/20 07:21:52;;;;;;;46.50;22.75;;;-2.00;99.90;;;;;;5025567;28;20120;-68
2023/01/20 07:24:17;;;;;;;41.60;22.48;;;-2.00;99.90;;;;;;5019426;28;20049;-71
2023/01/20 07:26:43;;;;;;;48.70;23.70;;;-2.00;99.90;;;;;;5022869;28;20485;-73
2023/01/20 07:29:08;;;;;;;47.60;23.65;;;-2.00;99.90;;;;;;5017095;28;20161;-72
2023/01/20 07:31:34;;;;;;;45.08;22.17;;;-2.00;99.90;;;;;;5018745;28;20030;-74
2023/01/20 07:34:00;;;;;;;47.97;23.40;;;-2.00;99.90;;;;;;5024430;28;20079;-72
2023/01/20 07:36:26;;;;;;;52.33;22.77;;;-2.10;99.90;;;;;;5012044;28;20036;-70
2023/01/20 07:38:52;;;;;;;44.05;23.10;;;-2.00;99.90;;;;;;5018199;28;20056;-68
2023/01/20 07:41:19;;;;;;;48.05;24.00;;;-1.90;99.90;;;;;;5019588;28;20535;-69
2023/01/20 07:43:46;;;;;;;47.55;24.17;;;-1.90;99.90;;;;;;5023823;28;20442;-69
2023/01/20 07:46:13;;;;;;;58.42;24.33;;;-1.70;99.90;;;;;;5008481;28;20076;-70
2023/01/20 07:48:39;;;;;;;47.67;24.45;;;-1.50;99.90;;;;;;5021976;28;20048;-68
2023/01/20 07:51:07;;;;;;;51.10;24.48;;;-1.40;99.90;;;;;;5026046;28;20025;-67
2023/01/20 07:53:48;;;;;;;46.92;22.55;;;-1.30;99.90;;;;;;5002027;28;20125;-69
2023/01/20 07:56:19;;;;;;;48.20;22.17;;;-1.30;99.90;;;;;;5020036;28;20034;-68
2023/01/20 07:58:45;;;;;;;47.80;22.77;;;-1.10;99.90;;;;;;5016093;28;20034;-68
2023/01/20 08:01:17;;;;;;;45.17;22.95;;;-1.20;99.90;;;;;;5015451;28;20452;-68
2023/01/20 08:03:44;;;;;;;44.13;22.15;;;-1.20;99.90;;;;;;5017299;28;20451;-70
2023/01/20 08:06:12;;;;;;;44.58;22.80;;;-1.00;99.90;;;;;;5026894;28;20508;-68
2023/01/20 08:08:37;;;;;;;46.10;22.55;;;-0.90;99.90;;;;;;5020637;28;20130;-68
2023/01/20 08:11:04;;;;;;;45.33;23.42;;;-0.70;99.90;;;;;;5018760;28;20104;-71
2023/01/20 08:13:31;;;;;;;40.47;20.90;;;-0.50;99.90;;;;;;5015937;28;20053;-70
2023/01/20 08:16:05;;;;;;;38.28;18.08;;;-0.40;99.90;;;;;;5009111;28;20079;-69
2023/01/20 08:18:31;;;;;;;36.72;17.63;;;-0.20;99.90;;;;;;5017532;28;20428;-71
2023/01/20 08:20:57;;;;;;;31.83;17.00;;;-0.20;99.90;;;;;;5012821;28;20094;-72
2023/01/20 08:23:23;;;;;;;38.75;19.77;;;-0.20;99.90;;;;;;5023198;28;20021;-69
2023/01/20 08:25:50;;;;;;;29.23;16.63;;;-0.20;99.90;;;;;;5020603;28;20036;-71
2023/01/20 08:28:16;;;;;;;29.63;16.05;;;-0.20;99.90;;;;;;5023794;28;20022;-68
2023/01/20 08:30:41;;;;;;;33.35;18.08;;;-0.30;99.90;;;;;;5024494;28;20507;-70
2023/01/20 08:33:07;;;;;;;34.03;17.58;;;-0.20;99.90;;;;;;5021382;28;20378;-71
2023/01/20 08:35:35;;;;;;;31.63;15.93;;;-0.20;99.90;;;;;;5020757;28;20413;-73
2023/01/20 08:38:02;;;;;;;30.30;16.55;;;-0.20;99.90;;;;;;5023646;28;20294;-72
2023/01/20 08:40:27;;;;;;;27.63;15.23;;;-0.20;99.90;;;;;;5021533;28;20038;-74
2023/01/20 08:42:53;;;;;;;28.00;15.82;;;-0.20;99.90;;;;;;5022890;28;20519;-69
2023/01/20 08:45:19;;;;;;;41.22;17.90;;;-0.20;99.90;;;;;;5018975;28;20037;-74
2023/01/20 08:47:45;;;;;;;30.83;16.30;;;-0.10;99.90;;;;;;5024626;28;20096;-69
2023/01/20 08:50:13;;;;;;;28.80;16.08;;;-0.20;99.90;;;;;;5021897;28;20033;-73
2023/01/20 08:52:40;;;;;;;25.80;14.95;;;-0.10;99.90;;;;;;5020225;28;20021;-71
2023/01/20 08:55:07;;;;;;;27.75;15.45;;;-0.10;99.90;;;;;;5019391;28;20029;-70
2023/01/20 08:57:33;;;;;;;32.15;15.95;;;-0.10;99.90;;;;;;5019605;28;20037;-78
2023/01/20 08:59:58;;;;;;;27.92;14.68;;;-0.10;99.90;;;;;;5013737;28;20048;-77
2023/01/20 09:02:24;;;;;;;29.00;15.40;;;-0.10;99.90;;;;;;5016328;28;20034;-70
2023/01/20 09:04:50;;;;;;;28.40;16.02;;;0.00;99.90;;;;;;5013492;28;20037;-76
2023/01/20 09:07:18;;;;;;;26.25;14.80;;;0.20;99.90;;;;;;5012973;28;20531;-73
2023/01/20 09:09:44;;;;;;;24.58;14.50;;;0.30;99.90;;;;;;5019303;28;20037;-76
2023/01/20 09:12:10;;;;;;;27.48;14.88;;;0.60;99.90;;;;;;5020699;28;20505;-70
2023/01/20 09:14:36;;;;;;;26.55;14.73;;;0.90;99.90;;;;;;5017353;28;20044;-73
2023/01/20 09:17:02;;;;;;;24.45;14.95;;;0.70;99.90;;;;;;5015469;28;20024;-74
2023/01/20 09:19:28;;;;;;;25.77;14.32;;;0.60;99.90;;;;;;5024275;28;20543;-77
2023/01/20 09:21:55;;;;;;;27.05;14.48;;;0.60;99.90;;;;;;5014889;28;20486;-75
2023/01/20 09:24:20;;;;;;;22.88;12.10;;;0.60;99.90;;;;;;5017193;28;20088;-75
2023/01/20 09:26:47;;;;;;;25.48;13.23;;;0.80;99.90;;;;;;5022642;28;20440;-75
2023/01/20 09:29:14;;;;;;;;;;;3.20;99.90;;;;;;5019697;28;20088;-74
2023/01/20 09:31:42;;;;;;;24.55;12.65;;;5.10;95.90;;;;;;5017027;28;20489;-74
2023/01/20 09:34:09;;;;;;;22.27;11.90;;;5.00;93.80;;;;;;5016263;28;20049;-74
2023/01/20 09:36:35;;;;;;;22.73;10.25;;;3.90;95.20;;;;;;5017269;28;20045;-75
2023/01/20 09:43:52;;;;;;;15.32;9.07;;;3.10;97.30;;;;;;5015826;28;20513;-72
2023/01/20 09:44:49;;;;;;;20.48;10.35;;;2.80;96.90;;;;;;5015225;28;20029;-75
2023/01/20 09:47:28;;;;;;;21.73;9.98;;;2.40;99.20;;;;;;5023006;28;20025;-74
2023/01/20 09:53:21;;;;;;;15.13;9.43;;;2.10;99.60;;;;;;5018846;28;20266;-68
2023/01/20 09:55:51;;;;;;;16.63;8.43;;;2.00;99.90;;;;;;5018765;28;20036;-69
2023/01/20 09:58:56;;;;;;;14.23;8.43;;;1.90;99.90;;;;;;5019822;28;20034;-68
2023/01/20 10:01:46;;;;;;;15.63;8.85;;;1.80;99.90;;;;;;5003867;28;20058;-68
2023/01/20 10:04:19;;;;;;;18.42;9.80;;;1.80;99.90;;;;;;5016124;28;20515;-68
2023/01/20 10:06:50;;;;;;;17.60;8.82;;;1.80;99.90;;;;;;5017357;28;20026;-68
2023/01/20 10:09:31;;;;;;;16.30;9.82;;;1.80;99.90;;;;;;5020374;28;20060;-67
2023/01/20 10:12:24;;;;;;;18.60;9.68;;;1.70;99.90;;;;;;5018067;28;20018;-70
2023/01/20 10:15:18;;;;;;;16.45;9.18;;;1.90;99.90;;;;;;5014785;28;20103;-69
2023/01/20 10:17:48;;;;;;;16.83;9.20;;;2.10;99.90;;;;;;5022837;28;20021;-73
2023/01/20 10:20:27;;;;;;;16.60;9.75;;;2.20;99.90;;;;;;5016636;28;20033;-71
2023/01/20 10:23:32;;;;;;;19.58;8.85;;;2.20;99.90;;;;;;5019873;28;20048;-71
2023/01/20 10:26:08;;;;;;;17.10;9.27;;;2.50;99.50;;;;;;4996127;28;20564;-71
2023/01/20 10:28:42;;;;;;;21.35;10.68;;;2.70;98.90;;;;;;5018809;28;20447;-70
2023/01/20 10:31:11;;;;;;;17.58;9.35;;;2.90;98.60;;;;;;5023241;28;20044;-68
2023/01/20 10:33:42;;;;;;;18.15;11.02;;;3.10;99.30;;;;;;5024498;28;20026;-67
2023/01/20 10:36:18;;;;;;;16.48;9.65;;;3.30;98.40;;;;;;5023184;28;20034;-68
2023/01/20 10:38:54;;;;;;;18.30;10.75;;;3.20;98.40;;;;;;5017866;28;20085;-71
2023/01/20 10:41:38;;;;;;;16.10;9.48;;;3.00;98.40;;;;;;5016726;28;20429;-68
2023/01/20 10:44:10;;;;;;;18.10;10.23;;;3.10;98.40;;;;;;5019797;28;20045;-73
2023/01/20 10:46:39;;;;;;;18.10;9.75;;;3.20;98.20;;;;;;5020436;28;20033;-70
2023/01/20 10:49:20;;;;;;;15.77;9.75;;;3.00;98.60;;;;;;5025318;28;20029;-70
2023/01/20 10:52:14;;;;;;;19.27;10.35;;;2.90;99.30;;;;;;5020848;28;20097;-71
2023/01/20 10:54:48;;;;;;;18.85;9.80;;;2.80;99.90;;;;;;5019335;28;20068;-70
2023/01/20 10:57:15;;;;;;;16.58;9.32;;;2.80;99.60;;;;;;5005039;28;20505;-70
2023/01/20 11:00:06;;;;;;;20.95;10.07;;;2.60;99.40;;;;;;5018809;28;20052;-73
2023/01/20 11:02:36;;;;;;;18.98;10.63;;;2.20;99.90;;;;;;5020972;28;20124;-70
2023/01/20 11:05:17;;;;;;;15.02;9.90;;;2.10;99.90;;;;;;5024900;28;20057;-70
2023/01/20 11:07:45;;;;;;;20.58;10.27;;;2.00;99.90;;;;;;5023226;28;20030;-69
2023/01/20 11:10:19;;;;;;;19.63;11.60;;;1.90;99.90;;;;;;5019915;28;20072;-69
2023/01/20 11:12:48;;;;;;;28.10;13.13;;;1.90;99.90;;;;;;5023591;28;20030;-71
2023/01/20 11:15:29;;;;;;;31.88;14.98;;;2.00;99.90;;;;;;5025846;28;20029;-70
2023/01/20 11:18:13;;;;;;;28.33;15.63;;;2.00;99.90;;;;;;5024513;28;20025;-69
2023/01/20 11:20:55;;;;;;;27.55;15.57;;;2.00;99.90;;;;;;5022191;28;20040;-70
2023/01/20 11:23:37;;;;;;;27.58;16.83;;;2.00;99.90;;;;;;5027123;28;20104;-68
2023/01/20 11:26:10;;;;;;;29.77;16.92;;;2.00;99.90;;;;;;5020432;28;20493;-70
2023/01/20 11:28:53;;;;;;;25.88;15.52;;;2.00;99.90;;;;;;5023388;28;20117;-70
2023/01/20 11:31:21;;;;;;;24.95;15.32;;;2.00;99.90;;;;;;5022086;28;20033;-69
2023/01/20 11:33:58;;;;;;;30.90;16.95;;;2.10;99.90;;;;;;5025122;28;20025;-69
2023/01/20 11:36:25;;;;;;;24.60;14.93;;;2.30;99.90;;;;;;5015695;28;20504;-71
2023/01/20 11:38:51;;;;;;;26.35;15.30;;;2.40;99.90;;;;;;5004503;28;20049;-71
2023/01/20 11:41:27;;;;;;;26.63;15.40;;;2.40;99.90;;;;;;5019333;28;20048;-71
2023/01/20 11:43:55;;;;;;;24.20;12.93;;;2.40;99.90;;;;;;5017131;28;20028;-70
2023/01/20 11:46:23;;;;;;;25.70;14.70;;;2.50;99.90;;;;;;5020257;28;20512;-71
2023/01/20 11:48:49;;;;;;;25.17;14.10;;;2.50;99.90;;;;;;5022025;28;20037;-69
2023/01/20 11:51:24;;;;;;;24.48;12.88;;;2.70;99.90;;;;;;5021151;28;20489;-72
2023/01/20 11:54:04;;;;;;;25.50;12.60;;;2.80;99.90;;;;;;5024513;28;20500;-70
2023/01/20 11:56:40;;;;;;;25.48;14.63;;;2.90;99.90;;;;;;5018928;28;20417;-72
2023/01/20 11:59:18;;;;;;;21.90;13.38;;;2.90;99.90;;;;;;5023657;28;20037;-69
2023/01/20 12:01:56;;;;;;;23.35;13.15;;;3.10;99.90;;;;;;5016168;28;20460;-69
2023/01/20 12:04:29;;;;;;;23.88;13.25;;;3.20;99.90;;;;;;5025003;28;20501;-71
2023/01/20 12:07:06;;;;;;;21.15;11.95;;;3.20;99.90;;;;;;5019829;28;20030;-67
2023/01/20 12:09:42;;;;;;;28.40;14.23;;;3.20;99.90;;;;;;5019344;28;20760;-67
2023/01/20 12:12:27;;;;;;;22.08;13.60;;;3.10;99.90;;;;;;5016281;28;20320;-68
2023/01/20 12:15:30;;;;;;;22.35;12.75;;;3.00;99.90;;;;;;5019801;28;20034;-69
2023/01/20 12:17:59;;;;;;;24.73;13.35;;;3.10;99.90;;;;;;4959050;28;20804;-67
2023/01/20 12:20:50;;;;;;;28.25;13.93;;;3.30;99.90;;;;;;5012463;28;20033;-67
2023/01/20 12:23:38;;;;;;;25.60;12.50;;;3.10;99.90;;;;;;5012959;28;20037;-67
2023/01/20 12:26:05;;;;;;;24.95;13.68;;;3.20;99.90;;;;;;5020341;28;20030;-68
2023/01/20 12:29:00;;;;;;;26.40;13.48;;;3.30;99.90;;;;;;5015536;28;20037;-69
2023/01/20 12:31:26;;;;;;;25.08;13.75;;;3.40;99.90;;;;;;5023352;28;20043;-70
2023/01/20 12:34:11;;;;;;;26.85;14.57;;;3.40;99.90;;;;;;5017746;28;20026;-70
2023/01/20 12:36:45;;;;;;;27.77;14.60;;;3.40;99.90;;;;;;5018427;28;20412;-72
2023/01/20 12:39:28;;;;;;;23.17;13.23;;;3.40;99.90;;;;;;5017635;28;20036;-73
2023/01/20 12:42:18;;;;;;;27.23;14.63;;;3.50;99.90;;;;;;5017785;28;20060;-70
2023/01/20 12:45:02;;;;;;;26.38;14.60;;;3.60;99.90;;;;;;5022845;28;20024;-69
2023/01/20 12:47:28;;;;;;;28.40;14.20;;;3.60;99.90;;;;;;5018270;28;20524;-70
2023/01/20 12:50:31;;;;;;;26.27;14.60;;;3.60;99.90;;;;;;5024836;28;20108;-70
2023/01/20 12:53:29;;;;;;;27.70;13.38;;;3.60;99.90;;;;;;5014185;28;20090;-72
2023/01/20 12:56:19;;;;;;;28.83;14.23;;;3.70;99.90;;;;;;5017490;28;20408;-73